Time;durP1;ratioP1;P1;durP2;ratioP2;P2;SDS_P1;SDS_P2;PMS_P1;PMS_P2;Temp;Humidity;BMP_temperature;BMP_pressure;BME280_temperature;BME280_humidity;BME280_pressure;Samples;Min_cycle;Max_cycle;Signal;HPM_P1;HPM_P2
2023/01/26 00:01:13;;;;;;;33.30;14.00;;;;;;;-1.98;79.96;100559.54;79456;1295;3013008;-62
2023/01/26 00:03:41;;;;;;;37.90;14.50;;;;;;;-2.03;80.17;100560.37;78229;1298;3053466;-61
2023/01/26 00:06:09;;;;;;;36.80;16.60;;;;;;;-2.18;80.52;100560.40;79431;1298;3013145;-62
2023/01/26 00:08:40;;;;;;;52.00;20.60;;;;;;;-2.28;80.94;100557.73;79460;1298;3012775;-62
2023/01/26 00:11:09;;;;;;;49.60;22.00;;;;;;;-2.41;81.67;100555.55;78278;1296;3072152;-61
2023/01/26 00:13:37;;;;;;;34.20;12.50;;;;;;;-2.49;82.45;100559.94;79428;1298;3011889;-61
2023/01/26 00:16:10;;;;;;;43.50;13.20;;;;;;;-1.91;81.45;100558.02;78944;1295;3011738;-62
2023/01/26 00:18:37;;;;;;;38.20;13.20;;;;;;;-1.22;78.69;100545.59;79316;1295;3011909;-61
2023/01/26 00:21:10;;;;;;;31.70;13.90;;;;;;;-1.16;77.60;100545.61;78229;1302;3054034;-62
2023/01/26 00:23:36;;;;;;;42.10;13.00;;;;;;;-1.35;77.46;100545.86;79354;1295;3013170;-61
2023/01/26 00:26:05;;;;;;;26.50;13.20;;;;;;;-1.48;77.94;100546.65;78176;1299;3052502;-61
2023/01/26 00:28:32;;;;;;;26.50;10.80;;;;;;;-1.60;78.27;100546.93;79495;1299;3015801;-62
2023/01/26 00:31:06;;;;;;;25.60;9.90;;;;;;;-1.77;78.96;100553.16;79390;1295;3011879;-61
2023/01/26 00:33:34;;;;;;;23.20;10.10;;;;;;;-1.80;79.21;100550.74;78163;1301;3057543;-62
2023/01/26 00:36:03;;;;;;;25.40;10.40;;;;;;;-1.93;79.67;100556.14;79494;1300;3013876;-61
2023/01/26 00:38:29;;;;;;;28.80;11.30;;;;;;;-2.03;80.26;100560.19;79378;1295;3012934;-62
2023/01/26 00:41:00;;;;;;;29.10;13.20;;;;;;;-2.02;80.23;100552.30;78218;1308;3051966;-61
2023/01/26 00:43:27;;;;;;;33.00;12.60;;;;;;;-2.10;80.55;100552.23;79527;1298;3021036;-62
2023/01/26 00:45:54;;;;;;;24.90;11.70;;;;;;;-2.13;80.82;100557.20;79348;1298;3011419;-61
2023/01/26 00:48:24;;;;;;;30.40;11.80;;;;;;;-2.19;81.15;100554.73;78208;1298;3057013;-62
2023/01/26 00:50:51;;;;;;;24.80;11.70;;;;;;;-2.18;81.15;100555.59;79420;1296;3020946;-61
2023/01/26 00:53:17;;;;;;;31.80;13.50;;;;;;;-2.24;81.17;100553.65;79444;1295;3011958;-62
2023/01/26 00:55:46;;;;;;;22.20;8.70;;;;;;;-2.30;81.56;100553.59;78287;1298;3051874;-62
2023/01/26 00:58:13;;;;;;;22.70;9.80;;;;;;;-1.76;80.93;100553.17;79295;1299;3019048;-61
2023/01/26 01:00:39;;;;;;;21.90;8.80;;;;;;;-1.08;78.06;100545.14;79443;1298;3012119;-61
2023/01/26 01:03:07;;;;;;;23.00;10.00;;;;;;;-0.98;76.93;100545.19;78248;1298;3029909;-62
2023/01/26 01:05:34;;;;;;;26.80;11.10;;;;;;;-1.09;76.87;100546.34;79443;1295;3012942;-61
2023/01/26 01:08:01;;;;;;;23.20;10.30;;;;;;;-1.29;77.13;100545.21;79258;1294;3013121;-61
2023/01/26 01:10:29;;;;;;;30.00;10.80;;;;;;;-1.50;78.00;100540.98;78020;1300;3053067;-61
2023/01/26 01:12:56;;;;;;;23.10;10.80;;;;;;;-1.67;78.41;100542.77;79441;1298;3013128;-61
2023/01/26 01:15:23;;;;;;;30.80;11.20;;;;;;;-1.83;78.97;100545.57;79356;1298;3012986;-61
2023/01/26 01:17:51;;;;;;;28.80;11.30;;;;;;;-1.88;79.29;100544.33;78203;1298;3056094;-61
2023/01/26 01:20:19;;;;;;;26.60;11.40;;;;;;;-1.97;79.49;100545.64;79404;1298;3014736;-61
2023/01/26 01:22:46;;;;;;;24.40;9.60;;;;;;;-2.05;79.77;100543.16;79426;1298;3011492;-61
2023/01/26 01:25:14;;;;;;;30.00;11.60;;;;;;;-2.08;79.95;100540.39;78200;1298;3051361;-62
2023/01/26 01:27:41;;;;;;;22.90;9.70;;;;;;;-2.09;79.89;100542.96;79392;1298;3013588;-61
2023/01/26 01:30:09;;;;;;;31.90;11.90;;;;;;;-2.16;80.21;100539.48;79395;1298;3013745;-61
2023/01/26 01:32:38;;;;;;;26.60;11.40;;;;;;;-2.23;80.43;100536.84;78220;1295;3056804;-61
2023/01/26 01:35:06;;;;;;;32.80;12.60;;;;;;;-2.33;80.98;100535.03;79446;1295;3013133;-61
2023/01/26 01:37:35;;;;;;;22.40;10.30;;;;;;;-2.30;81.15;100529.40;78852;1296;3011637;-61
2023/01/26 01:40:03;;;;;;;27.00;10.40;;;;;;;-2.31;81.12;100528.54;79512;1298;3013472;-62
2023/01/26 01:42:32;;;;;;;18.80;7.30;;;;;;;-2.31;81.34;100530.08;79440;1296;3011666;-61
2023/01/26 01:45:25;;;;;;;21.50;9.30;;;;;;;-1.75;80.50;100528.27;78191;1298;3069748;-62
2023/01/26 01:47:58;;;;;;;23.00;8.30;;;;;;;-0.95;76.98;100525.59;78101;1298;3051928;-62
2023/01/26 01:50:24;;;;;;;27.00;10.70;;;;;;;-0.89;75.99;100520.61;79258;1296;3013196;-62
2023/01/26 01:52:55;;;;;;;31.10;11.60;;;;;;;-1.10;76.03;100520.20;78329;1298;3049555;-61
2023/01/26 01:55:23;;;;;;;28.70;11.40;;;;;;;-1.33;76.54;100518.73;79226;1301;3013113;-61
2023/01/26 01:57:52;;;;;;;28.20;12.50;;;;;;;-1.53;77.01;100519.31;78000;1294;3011767;-61
2023/01/26 02:00:22;;;;;;;27.00;11.80;;;;;;;-1.67;77.67;100513.90;78048;1299;3051695;-61
2023/01/26 02:03:17;;;;;;;32.50;13.60;;;;;;;-1.78;77.93;100512.80;79315;1295;3013355;-61
2023/01/26 02:06:10;;;;;;;28.70;13.40;;;;;;;-1.83;77.84;100513.63;77998;1300;3056867;-61
2023/01/26 02:08:41;;;;;;;30.70;13.80;;;;;;;-1.80;78.00;100511.75;78161;1298;3049536;-62
2023/01/26 02:11:21;;;;;;;29.70;13.10;;;;;;;-1.84;77.92;100514.12;79235;1301;3013655;-61
2023/01/26 02:13:49;;;;;;;31.00;13.10;;;;;;;-1.84;77.54;100518.59;78144;1298;3049167;-60
2023/01/26 02:16:17;;;;;;;33.90;12.90;;;;;;;-1.88;77.43;100518.57;79359;1301;3018398;-61
2023/01/26 02:18:44;;;;;;;35.00;14.60;;;;;;;-1.89;77.52;100518.57;79411;1298;3013173;-60
2023/01/26 02:21:18;;;;;;;37.40;14.80;;;;;;;-1.98;77.03;100520.21;78062;1301;3052031;-60
2023/01/26 02:24:03;;;;;;;38.00;15.40;;;;;;;-2.09;77.36;100520.82;79206;1294;3011878;-61
2023/01/26 02:26:33;;;;;;;36.30;15.60;;;;;;;-2.16;77.67;100516.48;78107;1301;3049834;-62
2023/01/26 02:29:00;;;;;;;46.80;17.90;;;;;;;-2.22;77.69;100514.20;79436;1295;3012767;-62
2023/01/26 02:31:27;;;;;;;42.50;17.00;;;;;;;-2.32;78.07;100518.39;79245;1301;3011581;-61
2023/01/26 02:33:55;;;;;;;41.90;17.40;;;;;;;-2.49;78.83;100512.59;77990;1301;3051837;-61
2023/01/26 02:36:24;;;;;;;45.10;17.90;;;;;;;-2.62;79.27;100513.66;79324;1298;3013455;-61
2023/01/26 02:39:02;;;;;;;63.20;19.80;;;;;;;-2.62;79.50;100513.48;79382;1295;3013607;-61
2023/01/26 02:44:16;;;;;;;49.70;17.50;;;;;;;-2.78;80.47;100512.80;78117;1298;3053544;-61
2023/01/26 02:46:43;;;;;;;46.20;17.30;;;;;;;-2.90;81.00;100509.08;79438;1298;3013450;-61
2023/01/26 02:51:57;;;;;;;45.80;17.40;;;;;;;-2.33;79.94;100510.83;78101;1296;3068973;-61
2023/01/26 02:57:10;;;;;;;44.80;17.90;;;;;;;-1.13;75.69;100506.77;78235;1298;3050027;-62
2023/01/26 02:59:37;;;;;;;54.30;21.40;;;;;;;-1.28;74.18;100504.30;79236;1295;3013155;-61
2023/01/26 03:02:03;;;;;;;57.60;21.90;;;;;;;-1.44;74.41;100506.64;79220;1295;3013421;-61
2023/01/26 03:04:32;;;;;;;46.00;19.30;;;;;;;-1.83;75.07;100506.74;78050;1300;3025933;-61
2023/01/26 03:06:58;;;;;;;43.30;17.30;;;;;;;-2.31;76.41;100509.98;79251;1301;3013446;-62
2023/01/26 03:09:25;;;;;;;44.00;18.70;;;;;;;-2.57;77.25;100510.44;79417;1294;3011867;-62
2023/01/26 03:11:53;;;;;;;39.60;15.30;;;;;;;-2.83;78.49;100507.61;78266;1298;3025432;-61
2023/01/26 03:14:19;;;;;;;36.90;14.70;;;;;;;-2.95;79.29;100507.66;79390;1298;3018593;-62
2023/01/26 03:16:46;;;;;;;31.60;14.60;;;;;;;-3.06;80.13;100504.28;79324;1300;3013340;-61
2023/01/26 03:27:45;;;;;;;34.10;12.70;;;;;;;-3.04;80.68;100490.58;77908;1298;3057285;-62
2023/01/26 03:30:13;;;;;;;31.00;15.20;;;;;;;-3.01;80.19;100491.81;79503;1295;3013081;-61
2023/01/26 03:32:42;;;;;;;41.70;14.60;;;;;;;-3.00;79.87;100490.45;78987;1298;3011721;-61
2023/01/26 03:35:14;;;;;;;35.90;15.90;;;;;;;-2.93;79.34;100487.11;79400;1298;3012966;-62
2023/01/26 03:37:42;;;;;;;35.70;14.50;;;;;;;-2.94;78.89;100489.49;78071;1301;3053599;-62
2023/01/26 03:57:01;;;;;;;29.70;11.90;;;;;;;-2.97;78.43;100490.48;77959;1295;3049371;-61
2023/01/26 03:59:36;;;;;;;33.80;14.40;;;;;;;-2.87;77.83;100490.23;79288;1301;3011547;-63
2023/01/26 04:10:37;;;;;;;33.20;14.70;;;;;;;-3.08;77.54;100492.94;78058;1300;3049732;-62
2023/01/26 08:23:54;;;;;;;88.80;33.50;;;;;;;-1.35;71.45;100522.16;80220;1299;3013714;-61
2023/01/26 08:26:21;;;;;;;85.50;33.50;;;;;;;-1.14;71.44;100512.11;79183;1298;3013837;-61
2023/01/26 08:28:47;;;;;;;87.00;35.20;;;;;;;-1.08;71.14;100511.44;79142;1303;3013279;-61
2023/01/26 08:31:18;;;;;;;105.70;38.80;;;;;;;-0.93;70.49;100517.34;77984;1301;3029840;-61
2023/01/26 08:33:46;;;;;;;92.00;35.20;;;;;;;-0.74;70.17;100515.67;79174;1304;3011609;-61
2023/01/26 08:36:13;;;;;;;108.80;36.20;;;;;;;-0.49;69.48;100517.27;76002;1299;3027795;-62
2023/01/26 08:38:40;;;;;;;95.70;36.20;;;;;;;-0.27;68.76;100519.17;79609;1295;3013894;-62
2023/01/26 08:41:08;;;;;;;93.60;37.10;;;;;;;-0.22;68.25;100515.06;79464;1295;3013256;-62
2023/01/26 08:43:36;;;;;;;83.90;32.60;;;;;;;-0.08;67.29;100515.57;78293;1295;3049928;-62
2023/01/26 08:46:02;;;;;;;74.80;32.30;;;;;;;0.03;66.60;100512.29;79424;1298;3013112;-63
2023/01/26 08:48:30;;;;;;;86.60;36.20;;;;;;;0.13;67.12;100510.38;79564;1298;3011443;-62
2023/01/26 08:50:59;;;;;;;71.50;33.10;;;;;;;0.27;67.48;100508.48;78339;1298;3051016;-61
2023/01/26 08:53:29;;;;;;;81.80;35.90;;;;;;;0.47;67.16;100499.98;79329;1295;3013440;-62
2023/01/26 08:56:00;;;;;;;75.80;34.50;;;;;;;0.47;66.41;100500.84;78264;1298;3053007;-62
2023/01/26 08:58:28;;;;;;;84.50;34.40;;;;;;;0.55;66.48;100492.02;79629;1295;3012183;-62
2023/01/26 09:00:56;;;;;;;74.80;33.30;;;;;;;0.64;64.87;100491.14;78339;1295;3052203;-61
2023/01/26 09:03:23;;;;;;;61.20;29.20;;;;;;;0.76;63.99;100488.83;79385;1301;3013054;-62
2023/01/26 09:05:49;;;;;;;77.60;32.00;;;;;;;0.92;63.12;100485.67;79286;1298;3011592;-62
2023/01/26 09:08:17;;;;;;;65.00;30.10;;;;;;;0.92;62.65;100483.45;78270;1298;3025443;-62
2023/01/26 09:10:45;;;;;;;66.60;30.10;;;;;;;1.12;62.83;100484.55;79755;1295;3012966;-61
2023/01/26 09:13:12;;;;;;;59.30;28.70;;;;;;;1.30;62.20;100484.43;79454;1298;3011658;-63
2023/01/26 09:21:53;;;;;;;50.30;22.60;;;;;;;1.57;58.70;100475.45;78015;1306;3067582;-69
2023/01/26 09:24:20;;;;;;;45.80;21.70;;;;;;;1.74;59.31;100473.23;78936;1306;3014497;-65
2023/01/26 09:26:47;;;;;;;49.00;22.30;;;;;;;1.77;57.23;100473.20;78756;1307;3011974;-70
2023/01/26 09:29:15;;;;;;;45.80;21.90;;;;;;;1.80;56.71;100470.95;77582;1309;3053710;-67
2023/01/26 09:31:42;;;;;;;43.60;20.40;;;;;;;1.88;56.46;100464.13;78703;1309;3013306;-69
2023/01/26 09:34:15;;;;;;;45.70;20.90;;;;;;;2.07;56.20;100462.05;77547;1313;3052324;-72
2023/01/26 09:36:42;;;;;;;43.80;19.10;;;;;;;2.22;56.30;100462.95;78723;1313;3012989;-65
2023/01/26 09:39:08;;;;;;;46.30;20.10;;;;;;;2.25;55.34;100456.00;78678;1307;3011589;-66
2023/01/26 09:41:48;;;;;;;44.60;21.10;;;;;;;2.25;55.19;100453.39;77448;1311;3028581;-64
2023/01/26 09:44:26;;;;;;;39.60;20.80;;;;;;;2.32;54.89;100444.50;77503;1311;3053797;-64
2023/01/26 09:47:15;;;;;;;48.80;22.60;;;;;;;2.31;54.95;100446.59;77538;1312;3050612;-62
2023/01/26 09:49:53;;;;;;;57.60;24.80;;;;;;;2.36;55.12;100440.13;77509;1311;3052674;-65
2023/01/26 09:52:30;;;;;;;53.70;24.70;;;;;;;2.28;55.20;100443.86;77587;1311;3052103;-63
2023/01/26 09:54:59;;;;;;;50.60;24.80;;;;;;;2.39;55.07;100439.93;77542;1311;3069539;-64
2023/01/26 09:57:32;;;;;;;49.40;22.50;;;;;;;2.41;54.99;100441.13;78714;1313;3013756;-65
2023/01/26 10:00:14;;;;;;;49.30;24.40;;;;;;;2.43;54.55;100439.20;77531;1306;3048404;-62
2023/01/26 10:02:59;;;;;;;49.40;23.90;;;;;;;2.33;54.16;100439.48;77476;1307;3053375;-63
2023/01/26 10:05:32;;;;;;;50.60;23.00;;;;;;;2.48;54.86;100436.89;77487;1312;3049054;-63
2023/01/26 10:08:07;;;;;;;53.00;22.60;;;;;;;2.68;54.33;100435.27;77402;1307;3052499;-62
2023/01/26 10:10:38;;;;;;;56.10;26.00;;;;;;;2.72;53.60;100429.16;78874;1313;3011810;-66
2023/01/26 10:13:07;;;;;;;49.80;23.10;;;;;;;2.72;53.68;100426.39;77507;1307;3069628;-64
2023/01/26 10:15:37;;;;;;;49.50;23.00;;;;;;;2.94;53.68;100419.70;78673;1307;3013126;-65
2023/01/26 10:18:07;;;;;;;55.80;24.80;;;;;;;2.94;53.80;100414.66;77506;1310;3049696;-64
2023/01/26 10:20:49;;;;;;;43.70;22.30;;;;;;;3.08;53.60;100405.98;78849;1307;3013102;-66
2023/01/26 10:23:26;;;;;;;49.40;24.20;;;;;;;3.14;53.19;100406.77;77480;1309;3049174;-61
2023/01/26 10:26:14;;;;;;;52.70;25.30;;;;;;;2.92;53.43;100399.98;77366;1313;3052219;-65
2023/01/26 10:28:43;;;;;;;58.30;24.80;;;;;;;2.97;54.20;100400.10;77417;1310;3052398;-64
2023/01/26 10:31:15;;;;;;;50.60;24.50;;;;;;;3.06;54.41;100398.06;78944;1309;3015157;-65
2023/01/26 10:33:54;;;;;;;55.30;25.90;;;;;;;3.10;55.02;100398.86;77570;1310;3057181;-63
2023/01/26 10:36:23;;;;;;;58.20;27.20;;;;;;;3.16;54.56;100392.18;77571;1309;3049864;-65
2023/01/26 10:38:50;;;;;;;55.10;26.10;;;;;;;3.11;54.64;100394.70;78703;1307;3016108;-65
2023/01/26 10:41:25;;;;;;;56.30;28.10;;;;;;;2.98;54.83;100399.38;78634;1309;3011760;-64
2023/01/26 10:43:56;;;;;;;58.90;28.20;;;;;;;3.13;55.19;100395.86;77578;1309;3052589;-60
2023/01/26 10:46:27;;;;;;;56.40;25.30;;;;;;;3.32;54.52;100394.20;78630;1308;3013081;-67
2023/01/26 10:48:56;;;;;;;50.50;25.60;;;;;;;3.46;53.56;100384.26;77540;1310;3050903;-63
2023/01/26 10:51:26;;;;;;;63.00;28.20;;;;;;;3.37;53.92;100383.89;78753;1306;3011805;-63
2023/01/26 10:54:19;;;;;;;61.40;27.70;;;;;;;3.42;53.91;100383.81;77426;1309;3026344;-61
2023/01/26 10:57:12;;;;;;;59.20;26.40;;;;;;;3.47;53.76;100384.61;77540;1307;3052432;-68
2023/01/26 11:00:07;;;;;;;56.20;25.80;;;;;;;3.60;53.74;100385.25;77487;1309;3050467;-61
2023/01/26 11:02:35;;;;;;;52.10;23.00;;;;;;;3.52;53.10;100378.27;77252;1312;3052449;-67
2023/01/26 11:05:07;;;;;;;54.00;23.40;;;;;;;3.52;53.14;100377.06;78781;1309;3013449;-63
2023/01/26 11:07:38;;;;;;;50.40;24.30;;;;;;;3.48;53.70;100374.70;77532;1309;3050951;-67
2023/01/26 11:10:30;;;;;;;47.60;22.60;;;;;;;3.50;53.58;100369.12;78578;1307;3013252;-60
2023/01/26 11:13:24;;;;;;;50.40;23.10;;;;;;;3.43;53.99;100368.38;77391;1306;3053135;-64
2023/01/26 11:15:55;;;;;;;55.30;24.10;;;;;;;3.25;54.10;100366.94;77218;1309;3051486;-63
2023/01/26 11:19:01;;;;;;;53.90;24.30;;;;;;;3.42;54.33;100368.41;78526;1309;3013677;-66
2023/01/26 11:21:32;;;;;;;43.00;22.60;;;;;;;3.44;53.92;100363.52;77422;1310;3052704;-64
2023/01/26 11:24:16;;;;;;;46.50;22.50;;;;;;;3.39;53.81;100363.25;78467;1307;3011357;-65
2023/01/26 11:27:02;;;;;;;45.80;20.90;;;;;;;3.44;53.93;100362.15;78391;1307;3050125;-65
2023/01/26 11:29:55;;;;;;;49.50;22.80;;;;;;;3.68;53.63;100361.36;79696;1307;3056492;-67
2023/01/26 11:32:34;;;;;;;54.20;25.20;;;;;;;3.62;53.87;100364.93;77158;1312;3049867;-60
2023/01/26 11:35:25;;;;;;;52.00;24.80;;;;;;;3.71;53.67;100360.11;77228;1312;3053759;-64
2023/01/26 11:38:31;;;;;;;49.20;23.10;;;;;;;3.65;53.92;100360.55;77381;1310;3050545;-64
2023/01/26 11:41:24;;;;;;;47.10;22.10;;;;;;;3.57;54.39;100356.02;77354;1306;3053188;-68
2023/01/26 11:44:14;;;;;;;46.70;22.60;;;;;;;3.71;54.87;100354.90;78262;1306;3052129;-66
2023/01/26 11:47:15;;;;;;;46.20;21.10;;;;;;;3.56;55.00;100351.89;77194;1309;3069434;-62
2023/01/26 11:49:58;;;;;;;49.10;23.10;;;;;;;3.50;55.28;100346.78;77276;1310;3051337;-62
2023/01/26 11:52:32;;;;;;;;;;;;;;;3.42;55.99;100350.73;77458;1310;3057482;-65
2023/01/26 11:55:30;;;;;;;42.00;17.60;;;;;;;3.52;55.80;100347.78;78726;1306;3011608;-60
2023/01/26 11:58:01;;;;;;;49.00;21.90;;;;;;;3.27;56.62;100349.09;77458;1310;3053520;-63
2023/01/26 12:00:47;;;;;;;46.80;21.60;;;;;;;3.34;56.46;100352.60;78601;1309;3012992;-65
2023/01/26 12:03:21;;;;;;;46.40;21.30;;;;;;;3.23;56.95;100351.23;77359;1307;3052866;-62
2023/01/26 12:05:53;;;;;;;42.50;19.50;;;;;;;3.52;56.02;100347.27;78765;1312;3011917;-61
2023/01/26 12:08:40;;;;;;;45.60;20.90;;;;;;;3.49;55.87;100350.80;77451;1306;3069179;-65
2023/01/26 12:11:27;;;;;;;41.10;19.60;;;;;;;3.45;55.99;100351.90;77568;1306;3050280;-63
2023/01/26 12:14:13;;;;;;;48.00;20.30;;;;;;;3.52;56.19;100350.73;77362;1310;3056713;-61
2023/01/26 12:16:41;;;;;;;37.60;19.90;;;;;;;3.54;55.99;100351.05;77399;1309;3049602;-64
2023/01/26 12:19:15;;;;;;;48.40;21.00;;;;;;;3.58;55.72;100351.15;78634;1307;3019631;-64
2023/01/26 12:21:44;;;;;;;44.60;18.90;;;;;;;3.60;56.09;100353.89;77581;1310;3052878;-63
2023/01/26 12:24:19;;;;;;;40.30;19.60;;;;;;;3.69;55.47;100350.95;78791;1313;3013741;-66
2023/01/26 12:26:49;;;;;;;41.80;18.20;;;;;;;3.83;55.22;100354.33;77294;1307;3051573;-63
2023/01/26 12:29:23;;;;;;;38.50;19.30;;;;;;;3.98;54.31;100359.95;78690;1307;3011667;-60
2023/01/26 12:31:59;;;;;;;44.30;19.10;;;;;;;3.88;54.52;100355.45;77398;1307;3050157;-61
2023/01/26 12:34:29;;;;;;;38.70;18.20;;;;;;;4.01;54.39;100353.83;77293;1313;3054018;-63
2023/01/26 12:37:28;;;;;;;38.60;18.10;;;;;;;4.19;54.31;100356.41;78755;1309;3013283;-66
2023/01/26 12:40:20;;;;;;;39.50;18.40;;;;;;;4.29;53.76;100354.15;77285;1309;3055045;-62
2023/01/26 12:43:17;;;;;;;37.00;18.40;;;;;;;4.24;54.13;100352.15;77629;1309;3052497;-67
2023/01/26 12:45:46;;;;;;;41.30;19.40;;;;;;;4.10;54.53;100354.16;77478;1309;3069692;-64
2023/01/26 12:48:26;;;;;;;37.10;18.90;;;;;;;4.11;54.86;100351.04;78688;1308;3013501;-66
2023/01/26 12:51:01;;;;;;;40.70;19.00;;;;;;;4.07;54.93;100342.27;77533;1307;3057067;-70
2023/01/26 12:53:31;;;;;;;37.30;19.10;;;;;;;4.18;54.80;100336.84;78669;1307;3013429;-66
2023/01/26 12:56:05;;;;;;;38.80;18.40;;;;;;;4.05;55.14;100334.86;77619;1309;3053302;-66
2023/01/26 12:58:36;;;;;;;43.00;19.60;;;;;;;4.13;55.20;100332.09;79045;1307;3012080;-68
2023/01/26 13:01:07;;;;;;;39.90;18.70;;;;;;;4.23;54.60;100330.14;77700;1310;3052518;-66
2023/01/26 13:03:40;;;;;;;39.60;17.80;;;;;;;4.18;54.67;100326.27;78853;1309;3011717;-68
2023/01/26 13:06:08;;;;;;;42.50;18.20;;;;;;;4.20;54.68;100329.70;77789;1306;3069221;-66
2023/01/26 17:05:49;;;;;;;15.70;6.20;;;;;;;0.30;63.11;100296.66;79886;1304;3011764;-61
2023/01/26 17:08:16;;;;;;;14.40;6.60;;;;;;;0.34;63.66;100287.85;78778;1304;3013025;-66
2023/01/26 17:10:42;;;;;;;20.30;7.20;;;;;;;0.36;63.89;100288.52;79101;1303;3011705;-68
2023/01/26 17:13:12;;;;;;;21.00;7.80;;;;;;;0.37;64.29;100288.17;77614;1306;3052223;-65
2023/01/26 17:15:39;;;;;;;15.50;7.90;;;;;;;0.42;64.13;100286.25;78831;1302;3013363;-66
2023/01/26 17:18:10;;;;;;;20.10;9.30;;;;;;;0.48;64.50;100283.30;77605;1297;3011719;-67
2023/01/26 17:20:37;;;;;;;18.90;8.70;;;;;;;0.48;64.10;100278.47;79414;1297;3012883;-68
2023/01/26 17:23:04;;;;;;;21.00;9.90;;;;;;;0.49;64.34;100279.67;79481;1295;3013153;-66
2023/01/26 17:25:32;;;;;;;25.90;12.00;;;;;;;0.47;64.43;100275.36;78242;1299;3049276;-64
2023/01/26 17:27:58;;;;;;;26.80;12.80;;;;;;;0.51;64.97;100277.41;79292;1300;3013306;-64
2023/01/26 17:30:26;;;;;;;26.60;12.80;;;;;;;0.61;65.16;100277.01;79411;1297;3013083;-66
2023/01/26 17:32:54;;;;;;;27.70;12.90;;;;;;;0.69;64.97;100279.71;78209;1297;3050180;-66
2023/01/26 17:35:21;;;;;;;26.50;13.60;;;;;;;0.69;65.19;100282.10;79530;1297;3019115;-67
2023/01/26 17:37:48;;;;;;;27.30;13.30;;;;;;;0.65;65.07;100283.69;79382;1299;3011586;-69
2023/01/26 17:40:16;;;;;;;25.50;12.30;;;;;;;0.57;65.31;100286.16;78119;1299;3025376;-69
2023/01/26 17:42:43;;;;;;;27.80;12.90;;;;;;;0.52;65.36;100281.02;79466;1299;3013498;-67
2023/01/26 17:45:10;;;;;;;31.50;13.60;;;;;;;0.47;65.39;100277.60;79383;1298;3013129;-66
2023/01/26 17:47:38;;;;;;;27.50;13.80;;;;;;;0.48;65.38;100272.59;78311;1300;3050116;-70
2023/01/26 17:50:05;;;;;;;27.30;12.70;;;;;;;0.44;65.20;100271.07;79445;1299;3018795;-67
2023/01/26 17:52:34;;;;;;;31.80;13.80;;;;;;;0.41;65.49;100269.03;79535;1299;3013497;-67
2023/01/26 17:55:05;;;;;;;29.30;13.60;;;;;;;0.39;65.42;100269.20;78263;1298;3049493;-69
2023/01/26 17:57:32;;;;;;;27.90;12.10;;;;;;;0.42;65.44;100271.95;79241;1298;3014548;-65
2023/01/26 17:59:58;;;;;;;22.60;11.40;;;;;;;0.49;65.83;100267.24;79518;1297;3012882;-64
2023/01/26 18:02:27;;;;;;;24.20;10.90;;;;;;;0.55;65.18;100271.17;78163;1299;3051463;-65
2023/01/26 18:04:54;;;;;;;23.60;10.20;;;;;;;0.61;64.85;100274.23;79333;1299;3013460;-63
2023/01/26 18:07:22;;;;;;;18.70;9.90;;;;;;;0.68;65.22;100274.37;79252;1299;3011653;-68
2023/01/26 18:09:50;;;;;;;20.60;9.70;;;;;;;0.71;64.64;100273.82;78134;1300;3050521;-67
2023/01/26 18:12:17;;;;;;;20.10;9.20;;;;;;;0.70;64.60;100271.59;79460;1297;3013157;-66
2023/01/26 18:14:44;;;;;;;19.30;8.80;;;;;;;0.71;64.33;100269.67;79564;1300;3011590;-67
2023/01/26 18:17:12;;;;;;;17.70;8.90;;;;;;;0.69;64.26;100266.95;78234;1296;3026485;-64
2023/01/26 18:19:39;;;;;;;21.20;9.10;;;;;;;0.65;64.14;100265.76;79392;1299;3014156;-63
2023/01/26 18:22:05;;;;;;;18.30;8.70;;;;;;;0.60;63.89;100263.90;79266;1298;3013245;-65
2023/01/26 18:24:33;;;;;;;21.00;8.50;;;;;;;0.59;64.02;100261.14;77972;1299;3025178;-65
2023/01/26 18:27:00;;;;;;;15.20;7.90;;;;;;;0.63;63.92;100260.43;79232;1300;3016101;-64
2023/01/26 18:29:27;;;;;;;19.00;7.50;;;;;;;0.59;63.86;100258.39;79260;1300;3011864;-63
2023/01/26 18:31:54;;;;;;;17.30;7.90;;;;;;;0.56;63.69;100262.71;78108;1296;3050257;-64
2023/01/26 18:34:21;;;;;;;13.80;6.00;;;;;;;0.61;64.02;100257.69;79303;1295;3013255;-68
2023/01/26 18:36:47;;;;;;;15.20;7.50;;;;;;;0.58;63.44;100253.56;79485;1299;3011654;-68
2023/01/26 18:39:16;;;;;;;13.20;7.20;;;;;;;0.55;63.41;100258.06;78215;1296;3026189;-68
2023/01/26 18:41:45;;;;;;;15.20;7.00;;;;;;;0.56;63.53;100254.80;79239;1299;3011730;-67
2023/01/26 18:44:13;;;;;;;15.50;6.80;;;;;;;0.62;63.75;100250.60;78262;1300;3026603;-65
2023/01/26 18:46:40;;;;;;;11.70;6.20;;;;;;;0.70;63.64;100252.27;79508;1300;3013332;-65
2023/01/26 18:49:08;;;;;;;13.40;6.30;;;;;;;0.74;63.72;100251.90;79491;1300;3011614;-64
2023/01/26 18:51:36;;;;;;;12.10;5.90;;;;;;;0.74;63.48;100250.34;78282;1300;3050278;-65
2023/01/26 18:54:04;;;;;;;13.70;5.90;;;;;;;0.74;63.17;100253.28;79321;1297;3013857;-64
2023/01/26 18:56:35;;;;;;;12.30;5.90;;;;;;;0.72;62.98;100251.92;78760;1300;3011923;-67
2023/01/26 18:59:02;;;;;;;9.70;5.90;;;;;;;0.70;62.64;100246.75;79399;1299;3015153;-63
2023/01/26 19:01:29;;;;;;;11.40;6.10;;;;;;;0.69;62.50;100240.90;79164;1298;3013331;-61
2023/01/26 19:03:57;;;;;;;16.90;6.40;;;;;;;0.62;62.28;100241.80;78171;1296;3025752;-62
2023/01/26 19:06:25;;;;;;;13.30;6.80;;;;;;;0.56;62.42;100240.14;79246;1298;3013733;-63
2023/01/26 19:08:57;;;;;;;16.00;6.90;;;;;;;0.48;62.37;100234.66;79869;1297;3011626;-64
2023/01/26 19:11:26;;;;;;;11.40;6.00;;;;;;;0.48;62.53;100231.92;78124;1300;3051170;-63
2023/01/26 19:13:54;;;;;;;18.00;6.30;;;;;;;0.45;62.48;100227.96;79543;1300;3015072;-64
2023/01/26 19:16:24;;;;;;;9.70;6.10;;;;;;;0.43;62.72;100231.09;78790;1295;3011670;-66
2023/01/26 19:18:50;;;;;;;12.20;5.60;;;;;;;0.50;62.91;100232.77;79470;1295;3012921;-62
2023/01/26 19:21:20;;;;;;;10.50;5.60;;;;;;;0.47;62.49;100230.73;79555;1298;3013456;-62
2023/01/26 19:23:49;;;;;;;14.30;6.40;;;;;;;0.43;62.73;100231.77;78079;1298;3049363;-63
2023/01/26 19:26:21;;;;;;;14.40;5.80;;;;;;;0.40;62.96;100229.39;79282;1297;3015428;-63
2023/01/26 19:28:49;;;;;;;14.90;7.00;;;;;;;0.42;62.95;100229.55;78216;1298;3053905;-66
2023/01/26 19:31:18;;;;;;;12.90;6.50;;;;;;;0.43;63.03;100225.05;79326;1298;3019047;-65
2023/01/26 19:33:51;;;;;;;11.20;6.20;;;;;;;0.43;62.92;100227.64;79583;1298;3011484;-63
2023/01/26 19:36:19;;;;;;;15.90;7.30;;;;;;;0.34;63.22;100230.45;78218;1299;3056821;-64
2023/01/26 19:38:46;;;;;;;13.60;6.40;;;;;;;0.32;63.37;100235.30;79659;1298;3013195;-65
2023/01/26 19:41:13;;;;;;;12.30;5.90;;;;;;;0.28;63.01;100235.33;79477;1298;3011816;-63
2023/01/26 19:43:41;;;;;;;12.90;5.80;;;;;;;0.27;63.43;100237.73;78425;1297;3052088;-64
2023/01/26 19:46:10;;;;;;;9.70;5.30;;;;;;;0.32;63.60;100231.85;79798;1295;3012026;-65
2023/01/26 19:48:40;;;;;;;9.80;5.50;;;;;;;0.39;63.55;100226.29;78851;1296;3011932;-66
2023/01/26 19:51:15;;;;;;;11.10;5.80;;;;;;;0.46;63.66;100216.94;79500;1296;3021173;-63
2023/01/26 19:53:48;;;;;;;10.10;5.20;;;;;;;0.46;63.18;100217.45;78364;1297;3052194;-64
2023/01/26 19:56:26;;;;;;;13.90;5.30;;;;;;;0.46;62.67;100210.20;79482;1298;3013676;-66
2023/01/26 19:58:56;;;;;;;9.60;4.90;;;;;;;0.40;63.19;100208.19;78199;1295;3050017;-66
2023/01/26 20:01:27;;;;;;;;;;;;;;;0.48;63.32;100207.27;79469;1298;3011598;-64
2023/01/26 20:04:01;;;;;;;11.20;4.60;;;;;;;0.48;62.98;100206.05;78194;1300;3051950;-64
2023/01/26 20:06:29;;;;;;;10.80;5.20;;;;;;;0.51;63.12;100204.31;79477;1298;3011871;-65
2023/01/26 20:08:57;;;;;;;10.20;5.30;;;;;;;0.42;62.79;100200.41;78378;1295;3052549;-66
2023/01/26 20:11:26;;;;;;;11.50;5.50;;;;;;;0.39;63.12;100202.34;79557;1298;3013031;-66
2023/01/26 20:13:57;;;;;;;10.10;5.40;;;;;;;0.44;62.99;100200.39;79584;1295;3011260;-65
2023/01/26 20:16:28;;;;;;;11.00;5.50;;;;;;;0.43;63.25;100197.83;78204;1300;3050209;-66
2023/01/26 20:18:55;;;;;;;11.10;5.50;;;;;;;0.41;62.95;100195.42;79537;1295;3011854;-66